Time;durP1;ratioP1;P1;durP2;ratioP2;P2;SDS_P1;SDS_P2;PMS_P1;PMS_P2;Temp;Humidity;BMP_temperature;BMP_pressure;BME280_temperature;BME280_humidity;BME280_pressure;Samples;Min_cycle;Max_cycle;Signal;HPM_P1;HPM_P2
2022/12/07 00:02:07;;;;;;;10.37;8.53;;;;;;;3.64;100.00;99150.25;6248085;22;20300;-82
2022/12/07 00:04:34;;;;;;;10.77;8.73;;;;;;;3.73;100.00;99152.59;6254807;22;20212;-81
2022/12/07 00:07:01;;;;;;;10.90;8.43;;;;;;;3.67;100.00;99150.69;6224912;23;20216;-79
2022/12/07 00:09:28;;;;;;;10.70;8.47;;;;;;;3.64;100.00;99144.94;6248497;23;20256;-79
2022/12/07 00:11:54;;;;;;;10.37;8.53;;;;;;;3.66;100.00;99149.03;6249899;22;20741;-79
2022/12/07 00:14:21;;;;;;;10.63;8.53;;;;;;;3.65;100.00;99135.97;6275261;22;20254;-80
2022/12/07 00:16:51;;;;;;;10.07;8.20;;;;;;;3.67;100.00;99139.25;6283482;22;20495;-80
2022/12/07 00:19:18;;;;;;;9.10;7.87;;;;;;;3.65;100.00;99139.44;6257269;22;20204;-83
2022/12/07 00:21:45;;;;;;;10.73;8.13;;;;;;;3.65;100.00;99138.59;6285530;22;20220;-80
2022/12/07 00:24:12;;;;;;;10.87;8.30;;;;;;;3.60;100.00;99130.41;6294823;22;20211;-80
2022/12/07 00:26:40;;;;;;;9.17;7.90;;;;;;;3.60;100.00;99125.09;6270587;22;20196;-81
2022/12/07 00:29:16;;;;;;;10.50;8.00;;;;;;;3.57;100.00;99128.97;6222301;22;20179;-82
2022/12/07 00:31:43;;;;;;;10.20;8.07;;;;;;;3.63;100.00;99140.66;6245752;22;20219;-80
2022/12/07 00:34:17;;;;;;;11.30;9.13;;;;;;;3.61;100.00;99140.81;6270478;22;20277;-80
2022/12/07 00:36:46;;;;;;;11.67;9.07;;;;;;;3.59;100.00;99136.72;6246467;22;20200;-81
2022/12/07 00:39:14;;;;;;;11.20;9.00;;;;;;;3.51;100.00;99137.66;6300655;22;21268;-81
2022/12/07 00:41:42;;;;;;;11.10;9.43;;;;;;;3.50;100.00;99139.47;6300875;22;20212;-81
2022/12/07 00:44:09;;;;;;;10.50;8.57;;;;;;;3.52;100.00;99129.53;6222582;22;20212;-81
2022/12/07 00:46:37;;;;;;;9.83;8.73;;;;;;;3.46;100.00;99138.19;6298999;22;20203;-81
2022/12/07 00:49:04;;;;;;;11.37;9.63;;;;;;;3.51;100.00;99133.16;6297881;22;20204;-82
2022/12/07 00:51:32;;;;;;;11.10;9.10;;;;;;;3.50;100.00;99136.81;6268580;22;20204;-81
2022/12/07 00:53:59;;;;;;;11.20;8.70;;;;;;;3.48;100.00;99138.84;6241258;23;20239;-80
2022/12/07 00:56:28;;;;;;;12.10;9.30;;;;;;;3.51;100.00;99124.41;6258448;23;20232;-80
2022/12/07 00:59:03;;;;;;;12.50;9.37;;;;;;;3.51;100.00;99125.22;6259834;22;20206;-81
2022/12/07 01:01:33;;;;;;;12.17;8.67;;;;;;;3.54;100.00;99148.72;6247746;23;20204;-81
2022/12/07 01:04:02;;;;;;;10.90;9.27;;;;;;;3.53;100.00;99133.81;6258315;23;20201;-81
2022/12/07 01:06:30;;;;;;;11.50;8.97;;;;;;;3.46;100.00;99132.06;6267104;23;20204;-81
2022/12/07 01:08:57;;;;;;;11.50;8.33;;;;;;;3.54;100.00;99147.88;6249606;23;20231;-81
2022/12/07 01:11:27;;;;;;;10.17;8.33;;;;;;;3.52;100.00;99132.16;6242238;23;20209;-82
2022/12/07 01:13:57;;;;;;;11.23;8.80;;;;;;;3.53;100.00;99135.63;6239142;23;20227;-82
2022/12/07 01:16:26;;;;;;;8.70;7.33;;;;;;;3.46;100.00;99132.91;6255546;22;20645;-81
2022/12/07 01:18:54;;;;;;;10.27;7.97;;;;;;;3.47;100.00;99131.91;6252022;22;20201;-80
2022/12/07 01:21:25;;;;;;;8.77;7.13;;;;;;;3.48;100.00;99153.91;6255731;23;20212;-81
2022/12/07 01:23:52;;;;;;;10.07;7.47;;;;;;;3.43;100.00;99153.66;6232269;23;20239;-81
2022/12/07 01:26:21;;;;;;;11.57;8.00;;;;;;;3.47;100.00;99137.19;6258875;22;20208;-81
2022/12/07 01:28:48;;;;;;;8.83;7.37;;;;;;;3.47;100.00;99142.50;6251423;23;20201;-80
2022/12/07 01:31:17;;;;;;;7.60;6.80;;;;;;;3.42;100.00;99139.59;6253962;22;20212;-81
2022/12/07 01:33:47;;;;;;;10.37;6.90;;;;;;;3.58;100.00;99143.03;6252619;22;20201;-80
2022/12/07 01:36:23;;;;;;;6.20;5.60;;;;;;;3.48;100.00;99135.38;6251408;22;20299;-81
2022/12/07 01:38:53;;;;;;;7.43;6.03;;;;;;;3.45;100.00;99138.41;6252987;23;20200;-81
2022/12/07 01:41:21;;;;;;;5.47;4.97;;;;;;;3.44;100.00;99134.94;6254218;22;20610;-81
2022/12/07 01:44:18;;;;;;;4.33;3.87;;;;;;;3.64;100.00;99135.13;6250564;23;20264;-80
2022/12/07 01:46:50;;;;;;;5.70;4.73;;;;;;;3.63;100.00;99138.81;6249542;22;20200;-80
2022/12/07 01:49:25;;;;;;;5.37;4.80;;;;;;;3.66;100.00;99129.66;6251101;23;20216;-79
2022/12/07 01:51:57;;;;;;;5.03;4.43;;;;;;;3.67;100.00;99136.59;6249377;22;20210;-79
2022/12/07 01:54:24;;;;;;;6.10;4.57;;;;;;;3.64;100.00;99131.69;6247790;22;20196;-80
2022/12/07 01:56:53;;;;;;;5.53;5.03;;;;;;;3.65;100.00;99131.50;6246679;23;20211;-80
2022/12/07 01:59:24;;;;;;;5.07;4.57;;;;;;;3.65;100.00;99136.78;6248079;23;20239;-80
2022/12/07 02:01:52;;;;;;;6.03;5.10;;;;;;;3.68;100.00;99128.47;6250581;23;20708;-80
2022/12/07 02:04:19;;;;;;;5.27;4.77;;;;;;;3.70;100.00;99131.75;6252184;22;20255;-80
2022/12/07 02:06:46;;;;;;;5.90;4.80;;;;;;;3.67;100.00;99139.25;6255427;22;20284;-80
2022/12/07 02:09:13;;;;;;;5.80;5.10;;;;;;;3.70;100.00;99128.28;6254801;23;20227;-80
2022/12/07 02:11:40;;;;;;;5.93;5.07;;;;;;;3.74;100.00;99130.34;6253576;23;20261;-80
2022/12/07 02:14:07;;;;;;;5.67;5.07;;;;;;;3.68;100.00;99125.00;6273884;22;20271;-80
2022/12/07 02:16:37;;;;;;;5.27;4.73;;;;;;;3.68;100.00;99132.97;6256473;22;20210;-80
2022/12/07 02:19:34;;;;;;;5.77;4.80;;;;;;;3.74;100.00;99134.84;6282664;22;20210;-80
2022/12/07 02:22:23;;;;;;;7.13;4.73;;;;;;;3.71;100.00;99125.44;6283768;22;20212;-80
2022/12/07 02:24:55;;;;;;;5.27;4.77;;;;;;;3.77;100.00;99121.22;6282112;22;20215;-80
2022/12/07 02:27:33;;;;;;;5.17;4.67;;;;;;;3.79;100.00;99130.63;6257378;22;20538;-80
2022/12/07 02:30:04;;;;;;;5.70;5.10;;;;;;;3.84;100.00;99122.09;6258464;22;20212;-80
2022/12/07 02:32:42;;;;;;;5.17;4.67;;;;;;;4.01;100.00;99117.38;6285514;22;20199;-80
2022/12/07 02:35:30;;;;;;;5.80;4.90;;;;;;;3.87;100.00;99122.53;6255965;22;20627;-81
2022/12/07 02:38:19;;;;;;;5.13;4.63;;;;;;;3.84;100.00;99119.44;6282143;22;20230;-80
2022/12/07 02:40:49;;;;;;;5.43;4.83;;;;;;;3.92;100.00;99125.44;6256504;22;20511;-80
2022/12/07 02:43:23;;;;;;;5.60;5.00;;;;;;;3.98;100.00;99124.69;6282864;22;20279;-80
2022/12/07 02:45:52;;;;;;;5.13;4.63;;;;;;;3.96;100.00;99125.91;6254125;22;20206;-81
2022/12/07 02:48:19;;;;;;;5.50;4.90;;;;;;;3.89;100.00;99130.31;6254559;22;20234;-80
2022/12/07 02:50:51;;;;;;;5.23;4.70;;;;;;;3.82;100.00;99119.66;6251527;22;20208;-80
2022/12/07 02:53:34;;;;;;;5.60;5.00;;;;;;;3.97;100.00;99128.34;6278056;22;20224;-79
2022/12/07 02:56:11;;;;;;;5.23;4.73;;;;;;;3.89;100.00;99122.34;6252585;22;20207;-79
2022/12/07 02:58:43;;;;;;;6.50;5.10;;;;;;;3.92;100.00;99128.09;6258137;22;20234;-80
2022/12/07 03:01:36;;;;;;;5.73;5.23;;;;;;;3.92;100.00;99121.97;6285886;22;20204;-80
2022/12/07 03:04:20;;;;;;;5.70;4.73;;;;;;;3.86;100.00;99112.16;6279084;22;20200;-79
2022/12/07 03:06:53;;;;;;;5.40;4.90;;;;;;;3.89;100.00;99117.88;6281851;22;20211;-80
2022/12/07 03:15:19;;;;;;;5.50;4.83;;;;;;;3.91;100.00;99115.06;6235970;23;20215;-79
2022/12/07 03:17:46;;;;;;;5.10;4.60;;;;;;;3.89;100.00;99120.53;6218391;23;20596;-80
2022/12/07 03:20:16;;;;;;;5.20;4.70;;;;;;;4.02;100.00;99121.66;6219784;23;20205;-80
2022/12/07 03:22:43;;;;;;;5.47;4.97;;;;;;;4.01;100.00;99118.22;6221615;23;20257;-81
2022/12/07 03:25:13;;;;;;;4.93;4.43;;;;;;;3.97;100.00;99112.44;6250400;23;20532;-81
2022/12/07 03:27:46;;;;;;;4.70;4.23;;;;;;;4.09;100.00;99119.91;6253751;23;20657;-81
2022/12/07 03:30:18;;;;;;;5.13;4.63;;;;;;;4.16;100.00;99120.75;6237209;23;20211;-81
2022/12/07 03:33:11;;;;;;;4.20;3.80;;;;;;;4.24;100.00;99113.53;6270427;22;20212;-82
2022/12/07 03:36:08;;;;;;;4.30;3.90;;;;;;;4.26;100.00;99111.47;6261980;22;20204;-83
2022/12/07 03:38:42;;;;;;;4.67;4.27;;;;;;;4.33;100.00;99115.03;6235197;23;20204;-83
2022/12/07 03:41:26;;;;;;;5.40;4.30;;;;;;;4.46;100.00;99114.28;6224736;23;20654;-80
2022/12/07 03:43:56;;;;;;;5.07;4.27;;;;;;;4.51;100.00;99125.16;6247316;23;20665;-79
2022/12/07 03:47:00;;;;;;;4.27;3.87;;;;;;;4.47;100.00;99115.94;6220149;23;20224;-80
2022/12/07 03:49:32;;;;;;;4.87;3.90;;;;;;;4.40;100.00;99117.72;6184214;23;20213;-79
2022/12/07 03:52:19;;;;;;;4.67;4.27;;;;;;;4.39;100.00;99126.66;6212444;23;20200;-81
2022/12/07 03:54:56;;;;;;;3.90;3.50;;;;;;;4.53;100.00;99125.75;6253110;23;20278;-81
2022/12/07 03:57:24;;;;;;;4.03;3.63;;;;;;;4.53;100.00;99124.94;6258763;23;20222;-82
2022/12/07 03:59:51;;;;;;;4.27;3.73;;;;;;;4.45;100.00;99123.25;6206911;23;20200;-81
2022/12/07 04:02:18;;;;;;;4.03;3.63;;;;;;;4.66;100.00;99128.53;6208007;23;20272;-82
2022/12/07 04:04:45;;;;;;;4.47;4.07;;;;;;;4.55;100.00;99130.88;6234101;23;20200;-82
2022/12/07 04:07:12;;;;;;;4.60;3.70;;;;;;;4.55;100.00;99126.41;6237516;23;20184;-82
2022/12/07 04:09:39;;;;;;;4.40;4.00;;;;;;;4.47;100.00;99128.38;6264896;23;20212;-82
2022/12/07 04:12:06;;;;;;;4.67;4.17;;;;;;;4.44;100.00;99126.91;6210087;23;20239;-81
2022/12/07 04:14:33;;;;;;;4.80;4.30;;;;;;;4.54;100.00;99126.59;6233385;23;20208;-81
2022/12/07 04:17:00;;;;;;;5.63;4.70;;;;;;;4.58;100.00;99127.84;6232242;23;20207;-81
2022/12/07 04:19:32;;;;;;;4.93;4.43;;;;;;;4.68;100.00;99128.31;6232336;23;20224;-83
2022/12/07 04:22:01;;;;;;;5.47;4.50;;;;;;;4.60;100.00;99136.44;6259947;23;20236;-82
2022/12/07 04:24:28;;;;;;;4.87;4.33;;;;;;;4.62;100.00;99129.13;6208705;23;20200;-81
2022/12/07 04:26:55;;;;;;;5.60;4.70;;;;;;;4.64;100.00;99137.69;6235037;23;20207;-81
2022/12/07 04:29:22;;;;;;;5.27;4.77;;;;;;;4.49;100.00;99123.69;6233705;23;20236;-82
2022/12/07 04:31:49;;;;;;;5.03;4.53;;;;;;;4.49;100.00;99124.50;6208249;23;20205;-82
2022/12/07 04:34:17;;;;;;;5.67;4.73;;;;;;;4.47;100.00;99131.03;6258994;23;20201;-81
2022/12/07 04:36:45;;;;;;;5.60;5.00;;;;;;;4.54;100.00;99123.94;6209445;23;20204;-81
2022/12/07 04:39:27;;;;;;;6.30;4.83;;;;;;;4.59;100.00;99129.47;6236308;23;20280;-82
2022/12/07 04:41:55;;;;;;;5.70;4.97;;;;;;;4.58;100.00;99128.66;6235454;23;20212;-82
2022/12/07 04:44:24;;;;;;;5.77;5.17;;;;;;;4.46;100.00;99122.25;6233903;23;20216;-82
2022/12/07 04:46:51;;;;;;;6.70;5.27;;;;;;;4.49;100.00;99121.84;6208510;23;20283;-82
2022/12/07 04:49:19;;;;;;;5.80;5.20;;;;;;;4.64;100.00;99137.69;6232456;23;20208;-82
2022/12/07 04:51:46;;;;;;;6.60;5.60;;;;;;;4.53;100.00;99133.72;6257682;23;20670;-81
2022/12/07 04:54:14;;;;;;;6.27;5.57;;;;;;;4.55;100.00;99141.50;6204035;23;20224;-81
2022/12/07 04:56:41;;;;;;;6.63;5.20;;;;;;;4.61;100.00;99141.56;6255258;23;20205;-81
2022/12/07 04:59:09;;;;;;;7.57;5.80;;;;;;;4.65;100.00;99131.38;6229316;23;20208;-81
2022/12/07 05:01:36;;;;;;;6.23;5.43;;;;;;;4.75;100.00;99131.84;6231808;23;20208;-81
2022/12/07 05:04:03;;;;;;;6.83;5.47;;;;;;;4.63;100.00;99126.25;6259464;23;20229;-81
2022/12/07 05:06:30;;;;;;;7.27;5.67;;;;;;;4.56;100.00;99135.19;6235782;23;20204;-81
2022/12/07 05:08:57;;;;;;;6.33;5.50;;;;;;;4.68;100.00;99136.28;6185144;23;20204;-81
2022/12/07 05:11:39;;;;;;;6.90;5.60;;;;;;;4.71;100.00;99133.25;6234565;23;20206;-82
2022/12/07 05:14:15;;;;;;;6.63;5.70;;;;;;;4.52;100.00;99132.09;6258619;23;20208;-81
2022/12/07 05:16:43;;;;;;;7.53;6.13;;;;;;;4.65;100.00;99142.81;6258325;23;20204;-81
2022/12/07 05:19:10;;;;;;;7.20;5.63;;;;;;;4.61;100.00;99144.22;6231872;23;20263;-81
2022/12/07 05:21:38;;;;;;;7.33;6.10;;;;;;;4.60;100.00;99150.53;6255173;23;20243;-82
2022/12/07 05:24:05;;;;;;;7.50;6.30;;;;;;;4.60;100.00;99144.41;6205138;23;20208;-81
2022/12/07 05:26:32;;;;;;;6.37;5.47;;;;;;;4.54;100.00;99135.38;6233994;23;20205;-82
2022/12/07 05:29:00;;;;;;;6.67;5.70;;;;;;;4.47;100.00;99144.31;6204814;23;20259;-81
2022/12/07 05:31:27;;;;;;;7.03;5.77;;;;;;;4.42;100.00;99139.56;6254852;23;20236;-82
2022/12/07 05:33:54;;;;;;;8.80;6.33;;;;;;;4.53;100.00;99136.38;6259956;23;20204;-82
2022/12/07 05:36:22;;;;;;;7.03;6.00;;;;;;;4.51;100.00;99134.94;6261710;23;20673;-82
2022/12/07 05:38:49;;;;;;;6.87;6.00;;;;;;;4.41;100.00;99129.97;6262743;23;20205;-82
2022/12/07 05:44:07;;;;;;;7.33;6.20;;;;;;;4.55;100.00;99133.53;6194749;23;20216;-81
2022/12/07 05:46:34;;;;;;;7.73;6.27;;;;;;;4.59;100.00;99130.31;6213512;23;20203;-81
2022/12/07 05:49:02;;;;;;;9.33;5.80;;;;;;;4.55;100.00;99134.38;6212200;23;20201;-82
2022/12/07 05:51:29;;;;;;;6.90;5.50;;;;;;;4.65;100.00;99140.16;6234533;23;20205;-83
2022/12/07 05:53:56;;;;;;;8.00;6.10;;;;;;;4.50;100.00;99134.13;6259250;23;20216;-81
2022/12/07 05:56:23;;;;;;;7.73;5.83;;;;;;;4.38;100.00;99131.19;6229822;23;20223;-81
2022/12/07 06:01:36;;;;;;;7.27;6.07;;;;;;;4.57;100.00;99134.19;6239215;23;20682;-82
2022/12/07 06:04:03;;;;;;;7.40;5.73;;;;;;;4.50;100.00;99130.63;6264422;23;20211;-82
2022/12/07 06:06:31;;;;;;;7.17;6.33;;;;;;;4.44;100.00;99137.53;6216917;23;20211;-82
2022/12/07 06:08:58;;;;;;;7.27;6.07;;;;;;;4.44;100.00;99138.34;6241230;23;20205;-82
2022/12/07 06:14:11;;;;;;;7.13;5.90;;;;;;;4.48;100.00;99138.00;6240898;23;20221;-81
2022/12/07 06:16:38;;;;;;;7.47;6.10;;;;;;;4.42;100.00;99140.41;6235776;23;20212;-82
2022/12/07 06:19:05;;;;;;;6.90;5.50;;;;;;;4.41;100.00;99148.53;6237195;23;20185;-82
2022/12/07 06:21:32;;;;;;;7.77;6.40;;;;;;;4.37;100.00;99144.63;6237366;23;20205;-82
2022/12/07 06:23:59;;;;;;;7.30;6.20;;;;;;;4.39;100.00;99135.44;6237829;23;20285;-82
2022/12/07 06:26:26;;;;;;;6.90;6.20;;;;;;;4.31;100.00;99132.13;6236039;23;20207;-83
2022/12/07 06:28:54;;;;;;;6.80;5.87;;;;;;;4.48;100.00;99151.25;6212597;23;20197;-82
2022/12/07 06:31:21;;;;;;;10.63;6.40;;;;;;;4.51;100.00;99142.91;6264128;23;20209;-81
2022/12/07 06:33:48;;;;;;;7.17;6.00;;;;;;;4.47;100.00;99146.94;6263940;23;20208;-82
2022/12/07 06:36:15;;;;;;;8.17;6.70;;;;;;;4.46;100.00;99140.00;6237064;23;20209;-82
2022/12/07 06:38:46;;;;;;;6.47;5.77;;;;;;;4.49;100.00;99144.91;6240146;23;20208;-82
2022/12/07 06:41:14;;;;;;;7.33;5.47;;;;;;;4.49;100.00;99142.25;6191079;23;20231;-82
2022/12/07 06:43:41;;;;;;;7.07;5.50;;;;;;;4.41;100.00;99141.41;6214005;23;20212;-82
2022/12/07 06:46:09;;;;;;;8.33;5.73;;;;;;;4.53;100.00;99135.56;6219631;23;20248;-82
2022/12/07 10:34:25;;;;;;;2.20;2.00;;;;;;;6.30;99.23;99160.25;6225196;23;20253;-81
2022/12/07 10:36:53;;;;;;;2.10;1.80;;;;;;;6.39;99.52;99164.34;6192927;23;20233;-83
2022/12/07 10:39:22;;;;;;;2.53;2.10;;;;;;;6.36;97.35;99158.63;6226349;23;20193;-83
2022/12/07 20:01:25;;;;;;;4.00;2.83;;;;;;;2.21;100.00;99138.25;6252335;23;20262;-80
2022/12/07 20:03:53;;;;;;;2.97;2.70;;;;;;;2.18;100.00;99150.00;6237422;23;20176;-81
2022/12/07 20:06:22;;;;;;;3.23;2.93;;;;;;;2.17;100.00;99140.44;6215112;23;20169;-81
2022/12/07 20:08:49;;;;;;;3.70;3.17;;;;;;;2.11;100.00;99146.41;6240825;23;20245;-81
2022/12/07 20:14:08;;;;;;;4.00;3.43;;;;;;;1.90;100.00;99135.69;6243630;23;20689;-80
2022/12/07 20:16:36;;;;;;;2.97;2.67;;;;;;;1.84;100.00;99144.31;6261875;23;20161;-81
2022/12/07 20:19:03;;;;;;;3.53;3.13;;;;;;;1.92;100.00;99143.41;6236024;23;20165;-80
2022/12/07 20:21:30;;;;;;;3.30;2.83;;;;;;;1.87;100.00;99148.44;6236635;23;20157;-80
2022/12/07 20:24:02;;;;;;;3.87;3.47;;;;;;;1.73;100.00;99134.97;6261532;23;20157;-80
2022/12/07 20:26:29;;;;;;;3.00;2.70;;;;;;;1.74;100.00;99155.09;6210081;23;20161;-80
2022/12/07 20:28:56;;;;;;;3.40;3.10;;;;;;;1.70;100.00;99147.72;6234648;23;20275;-80
2022/12/07 20:31:27;;;;;;;3.40;3.10;;;;;;;1.70;100.00;99156.44;6208676;23;20167;-81
2022/12/07 20:33:55;;;;;;;3.17;2.87;;;;;;;1.65;100.00;99160.59;6260136;23;20181;-80
2022/12/07 20:36:22;;;;;;;3.77;3.10;;;;;;;1.70;100.00;99148.53;6208859;23;20177;-81
2022/12/07 20:38:52;;;;;;;4.00;3.57;;;;;;;1.71;100.00;99155.47;6210611;23;20219;-80
2022/12/07 20:44:05;;;;;;;4.47;3.73;;;;;;;1.51;100.00;99156.88;6237581;23;20203;-81
2022/12/07 20:46:32;;;;;;;4.20;3.47;;;;;;;1.49;100.00;99145.69;6236931;23;20184;-81
2022/12/07 20:49:00;;;;;;;5.13;4.20;;;;;;;1.47;100.00;99152.13;6262593;23;20180;-80
2022/12/07 20:51:27;;;;;;;4.73;4.10;;;;;;;1.54;100.00;99151.25;6235334;23;20168;-80
2022/12/07 20:53:55;;;;;;;6.67;4.40;;;;;;;1.53;100.00;99143.53;6207798;23;20235;-81
2022/12/07 20:56:26;;;;;;;5.30;4.27;;;;;;;1.42;100.00;99138.63;6182897;23;20172;-80
2022/12/07 20:58:54;;;;;;;5.73;4.47;;;;;;;1.43;100.00;99141.09;6232101;23;20176;-80
2022/12/07 21:01:21;;;;;;;5.53;4.73;;;;;;;1.50;100.00;99138.56;6232642;23;20211;-80
2022/12/07 21:03:48;;;;;;;5.50;4.43;;;;;;;1.44;100.00;99134.00;6185063;23;20171;-80
2022/12/07 21:06:17;;;;;;;5.53;4.60;;;;;;;1.51;100.00;99134.94;6211282;23;20157;-80
2022/12/07 21:08:48;;;;;;;4.93;4.20;;;;;;;1.46;100.00;99132.00;6263524;23;20146;-81
2022/12/07 21:11:16;;;;;;;5.83;4.60;;;;;;;1.61;100.00;99146.09;6236914;23;20248;-80
2022/12/07 21:13:44;;;;;;;5.37;4.77;;;;;;;1.67;100.00;99134.88;6234970;23;20168;-80
2022/12/07 21:16:13;;;;;;;5.93;4.50;;;;;;;1.66;100.00;99136.69;6232158;23;20168;-80
2022/12/07 21:18:40;;;;;;;5.50;4.37;;;;;;;1.68;100.00;99137.31;6232482;23;20157;-80
2022/12/07 21:21:08;;;;;;;5.40;4.60;;;;;;;1.73;100.00;99134.97;6259207;23;20161;-80
2022/12/07 21:23:35;;;;;;;4.93;4.37;;;;;;;1.73;100.00;99140.25;6205661;23;20173;-80
2022/12/07 21:26:09;;;;;;;5.27;4.17;;;;;;;1.71;100.00;99142.25;6208081;23;20195;-81
2022/12/07 21:28:37;;;;;;;5.63;4.30;;;;;;;1.78;100.00;99139.72;6231864;23;20191;-80
2022/12/07 21:31:04;;;;;;;5.33;4.20;;;;;;;1.80;100.00;99140.38;6229074;23;20703;-79
2022/12/07 21:33:39;;;;;;;5.10;4.10;;;;;;;1.89;100.00;99143.78;6231842;23;20149;-80
2022/12/07 21:36:08;;;;;;;4.93;4.43;;;;;;;1.90;100.00;99140.97;6206794;22;20787;-80
